createdAt,value
2019-01-06T00:00:14.754Z,96.76
2019-01-06T00:05:31.987Z,96.92
2019-01-06T00:10:53.891Z,97.13
2019-01-06T00:16:25.327Z,95.74
2019-01-06T00:21:57.650Z,96.51
2019-01-06T00:27:19.238Z,96.35
2019-01-06T00:32:41.155Z,97.24
2019-01-06T00:38:02.881Z,96.92
2019-01-06T00:43:24.585Z,97.51
2019-01-06T00:48:46.344Z,96.68
2019-01-06T00:54:12.536Z,97.03
2019-01-06T00:59:34.321Z,96.45
2019-01-06T01:04:56.005Z,97.39
2019-01-06T01:10:19.133Z,96.57
2019-01-06T01:15:55.729Z,96.94
2019-01-06T01:21:34.072Z,95.93
2019-01-06T01:27:09.322Z,97.58
2019-01-06T01:32:35.643Z,97.13
2019-01-06T01:38:06.624Z,97.30
2019-01-06T01:43:28.750Z,96.58
2019-01-06T01:49:04.042Z,96.60
2019-01-06T01:54:26.039Z,98.19
2019-01-06T01:59:58.188Z,99.06
2019-01-06T02:05:30.205Z,99.26
2019-01-06T02:10:56.245Z,100.00
2019-01-06T02:16:18.081Z,100.00
2019-01-06T02:21:40.104Z,100.00
2019-01-06T02:27:02.241Z,100.00
2019-01-06T02:32:20.482Z,100.00
2019-01-06T02:37:46.681Z,100.00
2019-01-06T02:43:22.833Z,100.00
2019-01-06T02:48:46.376Z,100.00
2019-01-06T02:54:08.114Z,100.00
2019-01-06T02:59:29.899Z,100.00
2019-01-06T03:05:02.093Z,100.00
2019-01-06T03:10:26.606Z,100.00
2019-01-06T03:15:57.395Z,100.00
2019-01-06T03:21:32.537Z,100.00
2019-01-06T03:26:55.326Z,100.00
2019-01-06T03:32:10.870Z,100.00
2019-01-06T03:37:32.978Z,100.00
2019-01-06T03:42:45.929Z,100.00
2019-01-06T03:48:18.356Z,100.00
2019-01-06T03:53:40.423Z,100.00
2019-01-06T03:59:06.203Z,100.00
2019-01-06T04:04:38.274Z,100.00
2019-01-06T04:10:00.429Z,100.00
2019-01-06T04:15:32.757Z,100.00
2019-01-06T04:20:54.713Z,100.00
2019-01-06T04:26:17.881Z,100.00
2019-01-06T04:31:40.000Z,100.00
2019-01-06T04:37:06.355Z,100.00
2019-01-06T04:42:36.496Z,100.00
2019-01-06T04:47:51.172Z,100.00
2019-01-06T04:53:13.396Z,100.00
2019-01-06T04:58:35.260Z,100.00
2019-01-06T05:03:57.372Z,100.00
2019-01-06T05:09:35.892Z,100.00
2019-01-06T05:15:14.526Z,100.00
2019-01-06T05:20:36.479Z,100.00
2019-01-06T05:26:01.245Z,100.00
2019-01-06T05:31:36.493Z,100.00
2019-01-06T05:36:51.887Z,100.00
2019-01-06T05:42:10.905Z,100.00
2019-01-06T05:47:32.676Z,100.00
2019-01-06T05:52:54.484Z,100.00
2019-01-06T05:58:12.396Z,100.00
2019-01-06T06:03:31.082Z,100.00
2019-01-06T06:08:56.796Z,100.00
2019-01-06T06:14:18.480Z,99.39
2019-01-06T06:19:47.698Z,99.90
2019-01-06T06:25:09.340Z,100.00
2019-01-06T06:30:32.503Z,100.00
2019-01-06T06:36:07.557Z,100.00
2019-01-06T06:41:30.472Z,100.00
2019-01-06T06:46:53.407Z,100.00
2019-01-06T06:52:14.734Z,100.00
2019-01-06T06:58:22.929Z,100.00
2019-01-06T07:04:04.433Z,100.00
2019-01-06T07:09:42.571Z,100.00
2019-01-06T07:15:09.654Z,100.00
2019-01-06T07:20:50.174Z,100.00
2019-01-06T07:26:13.169Z,100.00
2019-01-06T07:31:42.165Z,100.00
2019-01-06T07:37:05.120Z,100.00
2019-01-06T07:42:26.470Z,100.00
2019-01-06T07:47:57.071Z,99.47
2019-01-06T07:53:32.273Z,99.25
2019-01-06T07:58:46.726Z,99.55
2019-01-06T08:04:07.085Z,100.00
2019-01-06T08:09:28.725Z,100.00
2019-01-06T08:14:51.489Z,100.00
2019-01-06T08:20:13.200Z,99.55
2019-01-06T08:25:35.957Z,98.61
2019-01-06T08:30:57.577Z,98.04
2019-01-06T08:36:25.393Z,97.65
2019-01-06T08:41:46.991Z,97.54
2019-01-06T08:47:08.591Z,98.35
2019-01-06T08:52:31.412Z,98.52
2019-01-06T08:57:57.187Z,99.10
2019-01-06T09:03:19.019Z,100.00
2019-01-06T09:08:44.686Z,100.00
2019-01-06T09:14:16.894Z,99.89
2019-01-06T09:19:51.199Z,98.04
2019-01-06T09:25:15.243Z,98.21
2019-01-06T09:30:48.458Z,97.08
2019-01-06T09:36:11.314Z,97.12
2019-01-06T09:41:34.054Z,95.01
2019-01-06T09:47:11.998Z,96.90
2019-01-06T09:52:41.188Z,95.25
2019-01-06T09:58:21.631Z,95.29
2019-01-06T10:03:42.992Z,92.77
2019-01-06T10:09:14.734Z,93.11
2019-01-06T10:14:49.339Z,93.85
2019-01-06T10:20:30.487Z,91.92
2019-01-06T10:25:52.185Z,92.16
2019-01-06T10:31:27.229Z,88.55
2019-01-06T10:37:02.415Z,92.89
2019-01-06T10:42:24.014Z,91.86
2019-01-06T10:47:53.540Z,91.59
2019-01-06T10:53:25.423Z,93.97
2019-01-06T10:58:42.234Z,94.13
2019-01-06T11:04:03.117Z,92.47
2019-01-06T11:09:17.138Z,92.13
2019-01-06T11:14:52.217Z,94.52
2019-01-06T11:20:20.844Z,90.87
2019-01-06T11:25:42.607Z,91.58
2019-01-06T11:31:05.379Z,91.70
2019-01-06T11:36:26.928Z,86.52
2019-01-06T11:41:49.756Z,89.64
2019-01-06T11:47:10.976Z,87.78
2019-01-06T11:52:32.754Z,88.17
2019-01-06T11:57:54.600Z,89.94
2019-01-06T12:03:08.478Z,85.95
2019-01-06T12:08:29.037Z,83.64
2019-01-06T12:13:43.934Z,86.56
2019-01-06T12:19:14.266Z,87.46
2019-01-06T12:24:41.487Z,87.23
2019-01-06T12:30:05.085Z,89.30
2019-01-06T12:35:31.170Z,87.95
2019-01-06T12:40:59.787Z,87.36
2019-01-06T12:46:38.599Z,88.60
2019-01-06T12:52:03.119Z,88.03
2019-01-06T12:57:44.185Z,89.49
2019-01-06T13:02:58.557Z,78.32
2019-01-06T13:08:23.814Z,85.72
2019-01-06T13:13:46.559Z,84.00
2019-01-06T13:19:25.700Z,86.83
2019-01-06T13:24:47.374Z,88.47
2019-01-06T13:30:12.144Z,89.32
2019-01-06T13:35:34.014Z,93.30
2019-01-06T13:41:02.851Z,91.85
2019-01-06T13:46:23.105Z,90.50
2019-01-06T13:51:44.828Z,90.24
2019-01-06T13:57:27.269Z,89.98
2019-01-06T14:03:02.239Z,89.11
2019-01-06T14:08:25.132Z,88.44
2019-01-06T14:13:46.972Z,87.29
2019-01-06T14:19:12.676Z,88.87
2019-01-06T14:24:38.333Z,91.15
2019-01-06T14:29:54.669Z,86.77
2019-01-06T14:35:30.560Z,87.26
2019-01-06T14:41:06.910Z,88.67
2019-01-06T14:46:41.759Z,88.67
2019-01-06T14:52:13.062Z,92.32
2019-01-06T14:57:37.840Z,93.68
2019-01-06T15:02:58.676Z,90.94
2019-01-06T15:08:23.503Z,90.16
2019-01-06T15:13:44.747Z,91.13
2019-01-06T15:19:09.558Z,93.81
2019-01-06T15:24:54.615Z,95.20
2019-01-06T15:30:23.452Z,94.25
2019-01-06T15:35:40.868Z,96.59
2019-01-06T15:41:00.342Z,96.95
2019-01-06T15:46:24.809Z,97.31
2019-01-06T15:51:46.428Z,97.64
2019-01-06T15:57:21.593Z,98.65
2019-01-06T16:02:47.687Z,99.55
2019-01-06T16:08:09.574Z,100.00
2019-01-06T16:13:34.017Z,100.00
2019-01-06T16:18:46.400Z,100.00
2019-01-06T16:24:09.243Z,100.00
2019-01-06T16:29:31.276Z,100.00
2019-01-06T16:34:59.907Z,100.00
2019-01-06T16:40:21.546Z,100.00
2019-01-06T16:45:43.272Z,100.00
2019-01-06T16:51:09.458Z,100.00
2019-01-06T16:56:31.044Z,100.00
2019-01-06T17:01:57.845Z,100.00
2019-01-06T17:07:12.914Z,100.00
2019-01-06T17:12:44.750Z,100.00
2019-01-06T17:18:13.522Z,99.28
2019-01-06T17:23:36.294Z,100.00
2019-01-06T17:29:10.212Z,100.00
2019-01-06T17:34:42.413Z,100.00
2019-01-06T17:40:05.812Z,100.00
2019-01-06T17:45:34.725Z,100.00
2019-01-06T17:50:56.156Z,100.00
2019-01-06T17:56:20.598Z,100.00
2019-01-06T18:01:42.371Z,100.00
2019-01-06T18:06:57.058Z,100.00
2019-01-06T18:12:14.720Z,100.00
2019-01-06T18:17:38.203Z,100.00
2019-01-06T18:23:10.487Z,100.00
2019-01-06T18:28:51.935Z,100.00
2019-01-06T18:34:17.616Z,100.00
2019-01-06T18:39:46.325Z,100.00
2019-01-06T18:45:09.490Z,100.00
2019-01-06T18:50:31.269Z,100.00
2019-01-06T18:55:59.871Z,100.00
2019-01-06T19:01:23.657Z,100.00
2019-01-06T19:06:45.539Z,100.00
2019-01-06T19:12:04.278Z,100.00
2019-01-06T19:17:40.826Z,100.00
2019-01-06T19:23:19.955Z,100.00
2019-01-06T19:28:41.484Z,100.00
2019-01-06T19:33:58.943Z,100.00
2019-01-06T19:39:20.713Z,100.00
2019-01-06T19:44:45.981Z,100.00
2019-01-06T19:50:07.048Z,100.00
2019-01-06T19:55:27.022Z,100.00
2019-01-06T20:00:43.717Z,100.00
2019-01-06T20:06:10.673Z,100.00
2019-01-06T20:11:32.366Z,100.00
2019-01-06T20:16:50.280Z,100.00
2019-01-06T20:22:11.765Z,100.00
2019-01-06T20:27:40.469Z,100.00
2019-01-06T20:33:21.477Z,100.00
2019-01-06T20:38:36.594Z,100.00
2019-01-06T20:44:04.974Z,100.00
2019-01-06T20:49:26.749Z,100.00
2019-01-06T20:54:48.172Z,100.00
2019-01-06T21:00:09.670Z,100.00
2019-01-06T21:05:44.782Z,100.00
2019-01-06T21:11:06.478Z,100.00
2019-01-06T21:16:29.351Z,100.00
2019-01-06T21:21:44.566Z,100.00
2019-01-06T21:27:06.430Z,100.00
2019-01-06T21:32:25.226Z,100.00
2019-01-06T21:37:54.362Z,100.00
2019-01-06T21:43:32.529Z,100.00
2019-01-06T21:49:07.452Z,100.00
2019-01-06T21:54:36.308Z,100.00
2019-01-06T22:00:11.204Z,100.00
2019-01-06T22:05:49.339Z,100.00
2019-01-06T22:11:30.040Z,100.00
2019-01-06T22:16:46.991Z,100.00
2019-01-06T22:22:02.966Z,100.00
2019-01-06T22:27:44.080Z,100.00
2019-01-06T22:33:05.570Z,100.00
2019-01-06T22:38:26.985Z,100.00
2019-01-06T22:43:58.995Z,100.00
2019-01-06T22:49:25.889Z,100.00
2019-01-06T22:54:47.163Z,100.00
2019-01-06T23:00:08.067Z,100.00
2019-01-06T23:05:21.280Z,100.00
2019-01-06T23:10:42.667Z,100.00
2019-01-06T23:15:56.733Z,100.00
2019-01-06T23:21:34.121Z,100.00
2019-01-06T23:27:03.096Z,100.00
2019-01-06T23:32:31.981Z,100.00
2019-01-06T23:38:01.210Z,100.00
2019-01-06T23:43:16.486Z,100.00
2019-01-06T23:48:57.849Z,100.00
2019-01-06T23:54:35.746Z,100.00
